Time;durP1;ratioP1;P1;durP2;ratioP2;P2;SDS_P1;SDS_P2;PMS_P1;PMS_P2;Temp;Humidity;BMP_temperature;BMP_pressure;BME280_temperature;BME280_humidity;BME280_pressure;Samples;Min_cycle;Max_cycle;Signal;HPM_P1;HPM_P2
2022/03/17 00:03:30;;;;;;;56.6;73.5;;;;;;;1.3;70.5;100020;;;;
2022/03/17 00:14:30;;;;;;;61;77.9;;;;;;;1.2;71.2;100030;;;;
2022/03/17 00:24:30;;;;;;;61;77.9;;;;;;;0.9;71.5;100030;;;;
2022/03/17 00:35:38;;;;;;;60;72.3;;;;;;;0.8;72.2;100040;;;;
2022/03/17 00:46:30;;;;;;;60;72.3;;;;;;;0.6;72.6;100050;;;;
2022/03/17 00:57:30;;;;;;;60;72.3;;;;;;;0.5;73.6;100040;;;;
2022/03/17 01:08:30;;;;;;;59.9;80.6;;;;;;;0.3;73.6;100060;;;;
2022/03/17 01:19:30;;;;;;;59.9;80.6;;;;;;;0.1;73.7;100070;;;;
2022/03/17 01:29:30;;;;;;;59.9;80.6;;;;;;;0;74.3;100070;;;;
2022/03/17 01:39:30;;;;;;;61;78.8;;;;;;;-0.2;74.8;100070;;;;
2022/03/17 01:49:30;;;;;;;61;78.8;;;;;;;-0.2;75.8;100070;;;;
2022/03/17 01:59:31;;;;;;;61;78.8;;;;;;;-0.2;77.1;100070;;;;
2022/03/17 02:09:31;;;;;;;54;72.6;;;;;;;-0.1;78;100080;;;;
2022/03/17 02:20:32;;;;;;;54;72.6;;;;;;;-0.3;78;100080;;;;
2022/03/17 02:30:30;;;;;;;54;72.6;;;;;;;-0.4;77.8;100090;;;;
2022/03/17 02:40:30;;;;;;;52.4;66.4;;;;;;;-0.3;79.6;100090;;;;
2022/03/17 02:50:30;;;;;;;52.4;66.4;;;;;;;-0.3;79.6;100110;;;;
2022/03/17 03:00:31;;;;;;;52.4;66.4;;;;;;;-0.4;80.2;100110;;;;
2022/03/17 03:11:30;;;;;;;55.9;74.2;;;;;;;-0.4;80.1;100120;;;;
2022/03/17 03:22:36;;;;;;;55.9;74.2;;;;;;;-0.6;80.1;100120;;;;
2022/03/17 03:33:30;;;;;;;55.9;74.2;;;;;;;-0.7;80.5;100120;;;;
2022/03/17 03:43:32;;;;;;;53.3;63;;;;;;;-0.8;80.2;100140;;;;
2022/03/17 03:54:13;;;;;;;53.3;63;;;;;;;-1;79.7;100150;;;;
2022/03/17 04:04:30;;;;;;;45.8;61.7;;;;;;;-1.3;79.6;100160;;;;
2022/03/17 04:15:30;;;;;;;45.8;61.7;;;;;;;-1.5;80.2;100180;;;;
2022/03/17 04:25:30;;;;;;;45.8;61.7;;;;;;;-1.7;79.9;100180;;;;
2022/03/17 04:36:31;;;;;;;45.5;60.9;;;;;;;-1.9;80.2;100190;;;;
2022/03/17 04:47:30;;;;;;;45.5;60.9;;;;;;;-2.1;80.4;100200;;;;
2022/03/17 04:58:31;;;;;;;45.5;60.9;;;;;;;-2.2;80.7;100220;;;;
2022/03/17 05:09:31;;;;;;;46.8;67.9;;;;;;;-2.1;82.1;100210;;;;
2022/03/17 05:20:30;;;;;;;46.8;67.9;;;;;;;-2;82.2;100200;;;;
2022/03/17 05:30:31;;;;;;;46.8;67.9;;;;;;;-1.9;82.4;100200;;;;
2022/03/17 05:41:30;;;;;;;49.3;67.8;;;;;;;-1.7;82;100210;;;;
2022/03/17 05:51:31;;;;;;;49.3;67.8;;;;;;;-1.4;82;100230;;;;
2022/03/17 06:01:31;;;;;;;49.3;67.8;;;;;;;-1;81.7;100230;;;;
2022/03/17 06:11:31;;;;;;;54.1;74.5;;;;;;;-0.7;80.9;100250;;;;
2022/03/17 06:22:31;;;;;;;54.1;74.5;;;;;;;-0.3;80.5;100250;;;;
2022/03/17 06:32:31;;;;;;;54.1;74.5;;;;;;;0.1;79;100240;;;;
2022/03/17 06:43:31;;;;;;;60.8;77;;;;;;;0.3;77.6;100240;;;;
2022/03/17 06:54:31;;;;;;;60.8;77;;;;;;;0.7;77.1;100250;;;;
2022/03/17 07:04:31;;;;;;;70.2;83.2;;;;;;;1;76.4;100270;;;;
2022/03/17 07:15:31;;;;;;;70.2;83.2;;;;;;;1.5;74.9;100280;;;;
2022/03/17 07:26:31;;;;;;;70.2;83.2;;;;;;;1.7;73.4;100290;;;;
2022/03/17 07:36:31;;;;;;;71.9;83.8;;;;;;;2.2;72.2;100290;;;;
2022/03/17 07:46:31;;;;;;;71.9;83.8;;;;;;;2.5;70.9;100290;;;;
2022/03/17 07:56:31;;;;;;;71.9;83.8;;;;;;;2.8;70;100310;;;;
2022/03/17 08:07:31;;;;;;;65.7;74.9;;;;;;;3.6;67.6;100310;;;;
2022/03/17 08:18:31;;;;;;;65.7;74.9;;;;;;;4.3;66.4;100320;;;;
2022/03/17 08:28:31;;;;;;;65.7;74.9;;;;;;;4.8;64.2;100320;;;;
2022/03/17 08:38:31;;;;;;;53.9;63.1;;;;;;;5.3;61.9;100320;;;;
2022/03/17 08:49:35;;;;;;;53.9;63.1;;;;;;;6;55.1;100330;;;;
2022/03/17 08:59:31;;;;;;;53.9;63.1;;;;;;;6.2;53.4;100320;;;;
2022/03/17 09:09:31;;;;;;;27.8;32.3;;;;;;;6.5;52.7;100350;;;;
2022/03/17 09:19:32;;;;;;;27.8;32.3;;;;;;;6.5;53.4;100340;;;;
2022/03/17 09:30:31;;;;;;;27.8;32.3;;;;;;;7;51.9;100360;;;;
2022/03/17 09:40:31;;;;;;;25.9;30.7;;;;;;;7;49.4;100350;;;;
2022/03/17 09:51:31;;;;;;;25.9;30.7;;;;;;;7.4;48.7;100350;;;;
2022/03/17 10:01:31;;;;;;;25.9;30.7;;;;;;;7.6;47.2;100340;;;;
2022/03/17 10:11:31;;;;;;;18.7;22.9;;;;;;;7.8;46.9;100340;;;;
2022/03/17 10:22:31;;;;;;;18.7;22.9;;;;;;;8;45.8;100340;;;;
2022/03/17 10:33:31;;;;;;;29.1;33.6;;;;;;;8.1;45.5;100330;;;;
2022/03/17 10:44:31;;;;;;;29.1;33.6;;;;;;;8.3;45.4;100330;;;;
2022/03/17 10:55:31;;;;;;;29.1;33.6;;;;;;;8.6;44.8;100330;;;;
2022/03/17 11:05:31;;;;;;;15;20.2;;;;;;;8.6;44.7;100330;;;;
2022/03/17 11:15:31;;;;;;;15;20.2;;;;;;;8.5;44.3;100340;;;;
2022/03/17 11:25:34;;;;;;;15;20.2;;;;;;;8.7;43.7;100340;;;;
2022/03/17 11:36:31;;;;;;;14.4;18.8;;;;;;;8.5;43.6;100330;;;;
2022/03/17 11:47:36;;;;;;;14.4;18.8;;;;;;;9.1;42.3;100320;;;;
2022/03/17 11:58:33;;;;;;;14.4;18.8;;;;;;;9.1;42.6;100310;;;;
2022/03/17 12:09:31;;;;;;;11.4;14.2;;;;;;;9;41;100310;;;;
2022/03/17 12:20:31;;;;;;;11.4;14.2;;;;;;;9.1;38.7;100310;;;;
2022/03/17 12:31:31;;;;;;;11.4;14.2;;;;;;;9;37.4;100300;;;;
2022/03/17 12:41:31;;;;;;;9.6;15.3;;;;;;;9.5;38.4;100300;;;;
2022/03/17 12:51:31;;;;;;;9.6;15.3;;;;;;;9.7;40;100300;;;;
2022/03/17 13:01:31;;;;;;;9.6;15.3;;;;;;;9.7;40.5;100300;;;;
2022/03/17 13:21:31;;;;;;;11.5;16.3;;;;;;;9.9;38.3;100300;;;;
2022/03/17 13:32:31;;;;;;;9.7;12.3;;;;;;;9.6;38.8;100290;;;;
2022/03/17 13:43:31;;;;;;;;;;;;;;;;;;;;;
2022/03/17 13:53:31;;;;;;;9.7;12.3;;;;;;;9.7;37.9;100280;;;;
2022/03/17 14:03:32;;;;;;;9.4;13.4;;;;;;;9.6;36.8;100290;;;;
2022/03/17 14:14:34;;;;;;;9.4;13.4;;;;;;;9.5;37.9;100290;;;;
2022/03/17 14:24:31;;;;;;;9.4;13.4;;;;;;;9.2;36.4;100290;;;;
2022/03/17 14:34:31;;;;;;;7.9;10.1;;;;;;;9;36.6;100290;;;;
2022/03/17 14:45:31;;;;;;;7.9;10.1;;;;;;;8.7;37.3;100300;;;;
2022/03/17 14:56:31;;;;;;;7.9;10.1;;;;;;;8.5;37.2;100290;;;;
2022/03/17 15:06:31;;;;;;;22.9;30.6;;;;;;;8.3;37.6;100290;;;;
2022/03/17 15:17:31;;;;;;;22.9;30.6;;;;;;;8.2;37.5;100300;;;;
2022/03/17 15:37:31;;;;;;;8.1;11.7;;;;;;;7.9;38.6;100320;;;;
2022/03/17 15:47:31;;;;;;;8.1;11.7;;;;;;;7.6;38.8;100320;;;;
2022/03/17 15:58:31;;;;;;;8.1;11.7;;;;;;;7.4;39.4;100320;;;;
2022/03/17 16:08:31;;;;;;;10.7;15.1;;;;;;;7;41.6;100320;;;;
2022/03/17 16:19:32;;;;;;;10.7;15.1;;;;;;;6.7;43.5;100330;;;;
2022/03/17 16:29:31;;;;;;;10.7;15.1;;;;;;;6.4;44.8;100350;;;;
2022/03/17 16:40:31;;;;;;;13.5;18.2;;;;;;;6;45.2;100360;;;;
2022/03/17 16:50:31;;;;;;;13.5;18.2;;;;;;;5.7;45.8;100380;;;;
2022/03/17 17:00:31;;;;;;;13.5;18.2;;;;;;;5.5;46.3;100390;;;;
2022/03/17 17:10:31;;;;;;;21.5;32.9;;;;;;;5.4;46.3;100390;;;;
2022/03/17 17:20:31;;;;;;;21.5;32.9;;;;;;;5.2;46.6;100390;;;;
2022/03/17 17:30:50;;;;;;;21.5;32.9;;;;;;;5;47;100410;;;;
2022/03/17 17:41:31;;;;;;;22.3;26.7;;;;;;;4.7;47.1;100420;;;;
2022/03/17 17:52:31;;;;;;;22.3;26.7;;;;;;;4.7;47;100420;;;;
2022/03/17 18:03:31;;;;;;;18.9;23;;;;;;;4.5;46.6;100430;;;;
2022/03/17 18:14:31;;;;;;;18.9;23;;;;;;;4.4;46.4;100430;;;;
2022/03/17 18:25:31;;;;;;;18.9;23;;;;;;;4.2;46.6;100440;;;;
2022/03/17 18:35:32;;;;;;;18;24.2;;;;;;;4.1;46.9;100460;;;;
2022/03/17 18:46:31;;;;;;;18;24.2;;;;;;;3.9;47;100460;;;;
2022/03/17 18:57:31;;;;;;;18;24.2;;;;;;;3.8;47.2;100470;;;;
2022/03/17 19:07:31;;;;;;;20;26.1;;;;;;;3.6;47.5;100490;;;;
2022/03/17 19:17:31;;;;;;;20;26.1;;;;;;;3.5;47.8;100490;;;;
2022/03/17 19:28:31;;;;;;;20;26.1;;;;;;;3.4;48;100490;;;;
2022/03/17 19:38:31;;;;;;;25.3;34.4;;;;;;;3.4;47.4;100490;;;;
2022/03/17 19:48:31;;;;;;;25.3;34.4;;;;;;;3.3;47.5;100500;;;;
2022/03/17 19:59:31;;;;;;;25.3;34.4;;;;;;;3.3;46.8;100490;;;;
2022/03/17 20:20:31;;;;;;;21.7;27.9;;;;;;;3.3;44;100510;;;;
2022/03/17 20:30:31;;;;;;;21.7;27.9;;;;;;;3.3;43.2;100520;;;;
2022/03/17 20:41:31;;;;;;;15.9;21;;;;;;;3.1;43.1;100530;;;;
2022/03/17 20:51:32;;;;;;;15.9;21;;;;;;;3;43.2;100530;;;;
2022/03/17 21:01:31;;;;;;;14.8;18.3;;;;;;;3;42.8;100540;;;;
2022/03/17 21:12:31;;;;;;;14.8;18.3;;;;;;;2.8;42.9;100550;;;;
2022/03/17 21:22:31;;;;;;;14.8;18.3;;;;;;;2.7;43.1;100550;;;;
2022/03/17 21:33:31;;;;;;;14.4;18.7;;;;;;;2.6;43.4;100560;;;;
2022/03/17 21:43:31;;;;;;;14.4;18.7;;;;;;;2.5;43.7;100570;;;;
2022/03/17 21:53:32;;;;;;;14.4;18.7;;;;;;;2.4;43.9;100580;;;;
2022/03/17 22:03:31;;;;;;;19.1;25.4;;;;;;;2.3;44.3;100590;;;;
2022/03/17 22:14:31;;;;;;;19.1;25.4;;;;;;;2.1;44.7;100620;;;;
2022/03/17 22:25:31;;;;;;;19.1;25.4;;;;;;;2;44.6;100620;;;;
2022/03/17 22:35:32;;;;;;;17.4;23.3;;;;;;;1.8;45.6;100610;;;;
2022/03/17 22:46:31;;;;;;;17.4;23.3;;;;;;;1.6;46.1;100610;;;;
2022/03/17 22:57:31;;;;;;;17.4;23.3;;;;;;;1.5;46.1;100610;;;;
2022/03/17 23:07:31;;;;;;;17.4;22.6;;;;;;;1.3;47.1;100610;;;;
2022/03/17 23:17:32;;;;;;;17.4;22.6;;;;;;;1.2;48.2;100620;;;;
2022/03/17 23:28:31;;;;;;;17.4;22.6;;;;;;;1.1;48.6;100630;;;;
2022/03/17 23:39:31;;;;;;;18.9;30.4;;;;;;;0.9;49.4;100640;;;;
2022/03/17 23:49:32;;;;;;;18.9;30.4;;;;;;;0.8;49.6;100640;;;;
2022/03/17 23:59:31;;;;;;;18.9;30.4;;;;;;;0.7;50.2;100650;;;;
